createdAt,value
2023-01-11T00:01:52.858Z,5.15
2023-01-11T00:05:57.385Z,5.78
2023-01-11T00:10:04.677Z,6.10
2023-01-11T00:14:09.431Z,6.15
2023-01-11T00:18:13.417Z,3.90
2023-01-11T00:22:16.494Z,3.50
2023-01-11T00:26:19.395Z,4.50
2023-01-11T00:30:22.820Z,3.40
2023-01-11T00:34:25.592Z,5.10
2023-01-11T00:38:46.781Z,2.80
2023-01-11T00:43:07.861Z,4.60
2023-01-11T00:47:33.439Z,3.65
2023-01-11T00:51:36.118Z,2.90
2023-01-11T00:55:38.919Z,1.77
2023-01-11T00:59:41.797Z,1.00
2023-01-11T01:03:44.540Z,1.10
2023-01-11T01:07:47.860Z,1.92
2023-01-11T01:11:50.887Z,2.30
2023-01-11T01:15:58.586Z,2.95
2023-01-11T01:20:01.554Z,2.47
2023-01-11T01:24:05.210Z,3.65
2023-01-11T01:28:07.975Z,2.35
2023-01-11T01:32:10.696Z,2.13
2023-01-11T01:36:13.575Z,1.70
2023-01-11T01:40:16.434Z,1.25
2023-01-11T01:45:07.473Z,1.00
2023-01-11T01:49:15.745Z,1.20
2023-01-11T01:53:35.795Z,2.05
2023-01-11T01:57:43.227Z,1.30
2023-01-11T02:01:49.456Z,1.63
2023-01-11T02:05:53.614Z,3.47
2023-01-11T02:10:05.508Z,3.13
2023-01-11T02:14:13.457Z,3.40
2023-01-11T02:18:18.675Z,2.08
2023-01-11T02:22:24.598Z,2.28
2023-01-11T02:26:55.545Z,2.17
2023-01-11T02:31:10.474Z,2.00
2023-01-11T02:35:32.600Z,1.60
2023-01-11T02:39:52.059Z,1.10
2023-01-11T02:44:29.941Z,1.00
2023-01-11T02:48:58.975Z,0.80
2023-01-11T02:53:27.901Z,1.08
2023-01-11T02:57:32.837Z,2.03
2023-01-11T03:01:51.792Z,3.75
2023-01-11T03:06:23.970Z,4.25
2023-01-11T03:10:54.134Z,4.15
2023-01-11T03:15:19.348Z,4.75
2023-01-11T03:19:24.818Z,3.92
2023-01-11T03:23:41.721Z,3.45
2023-01-11T03:27:49.924Z,2.47
2023-01-11T03:32:12.833Z,3.97
2023-01-11T03:36:23.520Z,4.05
2023-01-11T03:40:34.786Z,5.20
2023-01-11T03:44:47.947Z,2.70
2023-01-11T03:48:58.404Z,1.75
2023-01-11T03:53:04.271Z,2.47
2023-01-11T03:57:22.172Z,1.30
2023-01-11T04:01:25.976Z,1.00
2023-01-11T04:05:29.123Z,1.10
2023-01-11T04:09:31.860Z,1.20
2023-01-11T04:13:34.726Z,0.90
2023-01-11T04:17:38.157Z,2.35
2023-01-11T04:21:40.868Z,2.85
2023-01-11T04:25:43.714Z,3.50
2023-01-11T04:29:46.434Z,4.10
2023-01-11T04:33:49.190Z,3.72
2023-01-11T04:37:58.658Z,2.95
2023-01-11T04:42:19.406Z,1.77
2023-01-11T04:46:23.139Z,1.58
2023-01-11T04:50:27.415Z,2.10
2023-01-11T04:54:30.257Z,2.40
2023-01-11T04:58:38.062Z,2.63
2023-01-11T05:02:41.132Z,2.42
2023-01-11T05:06:44.084Z,3.63
2023-01-11T05:10:53.657Z,3.67
2023-01-11T05:14:57.249Z,4.53
2023-01-11T05:19:01.816Z,3.60
2023-01-11T05:23:04.674Z,3.22
2023-01-11T05:27:07.422Z,4.20
2023-01-11T05:31:10.272Z,4.00
2023-01-11T05:35:13.127Z,4.38
2023-01-11T05:39:15.849Z,5.28
2023-01-11T05:43:18.598Z,3.30
2023-01-11T05:47:21.305Z,3.50
2023-01-11T05:51:37.348Z,3.38
2023-01-11T05:56:09.600Z,3.30
2023-01-11T06:00:28.595Z,3.03
2023-01-11T06:08:42.499Z,2.97
2023-01-11T06:12:45.327Z,3.10
2023-01-11T06:16:50.548Z,3.95
2023-01-11T06:21:01.702Z,4.22
2023-01-11T06:25:04.770Z,3.95
2023-01-11T06:29:09.913Z,4.70
2023-01-11T06:33:13.829Z,3.22
2023-01-11T06:37:20.269Z,4.22
2023-01-11T06:45:29.464Z,3.25
2023-01-11T06:49:32.665Z,4.25
2023-01-11T06:53:39.249Z,3.03
2023-01-11T06:57:43.867Z,2.58
2023-01-11T07:02:00.215Z,2.22
2023-01-11T07:23:25.719Z,3.70
2023-01-11T07:27:36.894Z,4.95
2023-01-11T07:31:49.480Z,5.97
2023-01-11T07:35:53.070Z,6.80
2023-01-11T07:40:00.340Z,7.88
2023-01-11T07:44:11.889Z,7.90
2023-01-11T07:48:21.028Z,6.72
2023-01-11T07:52:38.187Z,7.15
2023-01-11T07:57:43.437Z,6.50
2023-01-11T08:02:55.105Z,6.80
2023-01-11T08:07:01.631Z,7.75
2023-01-11T08:11:23.476Z,8.10
2023-01-11T08:15:28.312Z,8.48
2023-01-11T08:19:32.164Z,7.60
2023-01-11T08:23:36.106Z,7.88
2023-01-11T08:27:40.757Z,10.55
2023-01-11T08:31:49.295Z,9.57
2023-01-11T08:35:58.300Z,6.60
2023-01-11T08:40:04.901Z,6.88
2023-01-11T08:44:29.140Z,4.88
2023-01-11T08:53:18.326Z,7.10
2023-01-11T09:02:13.947Z,10.40
2023-01-11T09:06:33.479Z,10.20
2023-01-11T09:11:09.644Z,11.32
2023-01-11T09:15:18.348Z,14.93
2023-01-11T09:19:33.951Z,10.15
2023-01-11T09:23:41.155Z,8.93
2023-01-11T09:27:51.247Z,12.48
2023-01-11T09:31:59.063Z,11.07
2023-01-11T09:36:03.024Z,10.93
2023-01-11T09:40:07.216Z,10.52
2023-01-11T09:44:16.699Z,10.88
2023-01-11T09:48:33.281Z,9.85
2023-01-11T09:52:41.119Z,10.45
2023-01-11T09:56:53.641Z,11.35
2023-01-11T10:01:04.516Z,9.57
2023-01-11T10:05:31.142Z,8.20
2023-01-11T10:18:22.928Z,9.80
2023-01-11T10:23:53.612Z,7.50
2023-01-11T10:28:02.210Z,7.72
2023-01-11T10:32:57.121Z,7.93
2023-01-11T10:37:24.128Z,9.23
2023-01-11T10:41:52.335Z,10.43
2023-01-11T10:50:23.033Z,9.15
2023-01-11T10:54:33.257Z,8.50
2023-01-11T10:59:09.480Z,8.38
2023-01-11T11:03:33.860Z,8.80
2023-01-11T11:07:45.482Z,7.70
2023-01-11T11:11:58.717Z,9.85
2023-01-11T11:16:35.784Z,8.68
2023-01-11T11:20:41.311Z,7.68
2023-01-11T11:25:03.826Z,7.87
2023-01-11T11:29:10.689Z,7.30
2023-01-11T11:33:21.440Z,7.15
2023-01-11T11:37:40.272Z,7.53
2023-01-11T11:41:53.230Z,7.53
2023-01-11T11:45:59.111Z,7.45
2023-01-11T11:50:42.639Z,9.02
2023-01-11T11:54:58.444Z,6.97
2023-01-11T11:59:16.262Z,7.25
2023-01-11T12:03:34.491Z,6.38
2023-01-11T12:07:54.157Z,9.40
2023-01-11T12:12:01.684Z,8.73
2023-01-11T12:16:08.791Z,7.22
2023-01-11T12:20:24.250Z,8.02
2023-01-11T12:24:28.220Z,8.07
2023-01-11T12:29:03.981Z,8.10
2023-01-11T12:33:43.536Z,7.30
2023-01-11T12:37:47.646Z,8.32
2023-01-11T12:42:14.421Z,7.68
2023-01-11T12:46:50.301Z,6.38
2023-01-11T12:51:38.791Z,6.93
2023-01-11T12:56:09.179Z,7.22
2023-01-11T13:00:43.488Z,7.70
2023-01-11T13:04:54.343Z,6.97
2023-01-11T13:09:20.945Z,7.07
2023-01-11T13:13:51.900Z,7.13
2023-01-11T13:17:57.781Z,7.82
2023-01-11T13:22:04.673Z,5.78
2023-01-11T13:30:28.626Z,5.95
2023-01-11T13:35:05.257Z,3.70
2023-01-11T13:39:29.795Z,4.82
2023-01-11T13:44:02.195Z,5.20
2023-01-11T13:48:57.758Z,5.15
2023-01-11T13:53:29.285Z,6.13
2023-01-11T13:57:47.169Z,7.72
2023-01-11T14:02:15.801Z,7.65
2023-01-11T14:06:28.170Z,6.93
2023-01-11T14:10:37.176Z,7.30
2023-01-11T14:14:45.630Z,7.13
2023-01-11T14:19:14.639Z,9.93
2023-01-11T14:23:20.493Z,7.00
2023-01-11T14:27:54.612Z,6.32
2023-01-11T14:32:05.039Z,6.22
2023-01-11T14:36:49.221Z,7.30
2023-01-11T14:40:55.386Z,5.53
2023-01-11T14:45:16.899Z,6.07
2023-01-11T14:49:42.156Z,7.10
2023-01-11T14:54:09.251Z,6.85
2023-01-11T14:58:32.522Z,6.40
2023-01-11T15:02:40.467Z,7.32
2023-01-11T15:06:55.180Z,6.60
2023-01-11T15:11:23.887Z,7.53
2023-01-11T15:15:47.993Z,9.35
2023-01-11T15:19:52.644Z,8.90
2023-01-11T15:23:58.084Z,12.27
2023-01-11T15:28:38.786Z,11.80
2023-01-11T15:36:54.453Z,10.15
2023-01-11T15:41:17.565Z,11.55
2023-01-11T15:46:38.416Z,11.30
2023-01-11T15:51:03.087Z,9.70
2023-01-11T15:55:40.387Z,6.27
2023-01-11T16:00:20.012Z,5.57
2023-01-11T16:04:33.222Z,6.10
2023-01-11T16:08:50.388Z,14.10
2023-01-11T16:13:24.189Z,12.05
2023-01-11T16:17:27.921Z,11.93
2023-01-11T16:21:34.925Z,9.60
2023-01-11T16:25:41.359Z,10.85
2023-01-11T16:29:50.752Z,8.00
2023-01-11T16:33:53.902Z,9.85
2023-01-11T16:38:01.513Z,8.23
2023-01-11T16:42:06.180Z,7.07
2023-01-11T16:46:36.894Z,9.32
2023-01-11T16:50:44.598Z,6.20
2023-01-11T16:54:49.674Z,6.10
2023-01-11T16:59:16.980Z,6.03
2023-01-11T17:03:25.002Z,8.70
2023-01-11T17:07:30.680Z,8.85
2023-01-11T17:11:45.617Z,7.45
2023-01-11T17:16:03.146Z,6.85
2023-01-11T17:20:23.176Z,9.15
2023-01-11T17:24:27.160Z,15.05
2023-01-11T17:28:30.891Z,14.70
2023-01-11T17:32:41.994Z,15.70
2023-01-11T17:36:46.682Z,16.30
2023-01-11T17:40:49.892Z,17.05
2023-01-11T17:45:13.069Z,18.00
2023-01-11T17:49:26.331Z,18.08
2023-01-11T17:53:32.206Z,17.30
2023-01-11T17:57:35.114Z,19.02
2023-01-11T18:01:38.850Z,21.42
2023-01-11T18:05:43.114Z,16.35
2023-01-11T18:09:51.816Z,20.17
2023-01-11T18:13:58.545Z,20.30
2023-01-11T18:18:01.799Z,19.08
2023-01-11T18:22:24.479Z,21.27
2023-01-11T18:26:29.473Z,22.70
2023-01-11T18:30:32.354Z,16.85
2023-01-11T18:34:35.270Z,20.73
2023-01-11T18:38:38.015Z,21.42
2023-01-11T18:42:41.037Z,21.60
2023-01-11T18:46:43.757Z,20.27
2023-01-11T18:50:48.359Z,22.52
2023-01-11T18:54:51.888Z,19.13
2023-01-11T18:58:54.674Z,22.13
2023-01-11T19:02:57.849Z,91.15
2023-01-11T19:07:00.641Z,27.17
2023-01-11T19:11:04.120Z,18.95
2023-01-11T19:15:08.095Z,17.83
2023-01-11T19:19:11.033Z,20.17
2023-01-11T19:23:13.882Z,11.00
2023-01-11T19:27:16.939Z,13.35
2023-01-11T19:31:19.717Z,19.40
2023-01-11T19:35:25.960Z,12.75
2023-01-11T19:39:29.101Z,25.48
2023-01-11T19:43:31.983Z,16.23
2023-01-11T19:47:35.073Z,9.93
2023-01-11T19:51:37.953Z,16.20
2023-01-11T19:55:41.147Z,11.05
2023-01-11T19:59:44.568Z,10.43
2023-01-11T20:03:47.466Z,10.05
2023-01-11T20:07:50.450Z,15.40
2023-01-11T20:11:54.661Z,12.60
2023-01-11T20:15:57.671Z,9.85
2023-01-11T20:20:00.716Z,11.82
2023-01-11T20:24:04.165Z,9.05
2023-01-11T20:28:06.942Z,9.85
2023-01-11T20:32:31.083Z,11.70
2023-01-11T20:36:33.343Z,11.40
2023-01-11T20:40:39.092Z,15.63
2023-01-11T20:44:42.126Z,13.05
2023-01-11T20:48:48.459Z,6.70
2023-01-11T20:52:51.916Z,10.10
2023-01-11T20:56:54.870Z,13.35
2023-01-11T21:01:04.822Z,14.90
2023-01-11T21:05:08.070Z,18.85
2023-01-11T21:09:13.519Z,22.13
2023-01-11T21:13:16.650Z,22.83
2023-01-11T21:17:19.974Z,21.58
2023-01-11T21:21:23.451Z,20.30
2023-01-11T21:25:26.292Z,20.75
2023-01-11T21:29:29.145Z,17.65
2023-01-11T21:33:35.156Z,17.50
2023-01-11T21:37:37.852Z,18.87
2023-01-11T21:41:55.802Z,17.77
2023-01-11T21:45:58.886Z,19.20
2023-01-11T21:50:01.716Z,18.33
2023-01-11T21:54:07.172Z,18.85
2023-01-11T21:58:09.988Z,17.25
2023-01-11T22:02:12.827Z,15.38
2023-01-11T22:06:16.773Z,15.52
2023-01-11T22:10:20.466Z,19.00
2023-01-11T22:14:23.537Z,17.88
2023-01-11T22:18:26.296Z,19.08
2023-01-11T22:22:30.097Z,24.75
2023-01-11T22:26:35.790Z,25.23
2023-01-11T22:30:38.730Z,20.98
2023-01-11T22:34:41.436Z,21.42
2023-01-11T22:38:44.171Z,19.77
2023-01-11T22:42:46.982Z,20.05
2023-01-11T22:46:50.084Z,21.25
2023-01-11T22:50:53.101Z,20.15
2023-01-11T22:54:58.339Z,20.38
2023-01-11T22:59:06.192Z,19.20
2023-01-11T23:03:09.797Z,18.73
2023-01-11T23:07:12.880Z,18.25
2023-01-11T23:11:46.651Z,18.30
2023-01-11T23:15:56.130Z,17.85
2023-01-11T23:19:58.899Z,18.33
2023-01-11T23:24:02.729Z,17.20
2023-01-11T23:28:05.452Z,18.58
2023-01-11T23:32:08.330Z,15.40
2023-01-11T23:36:11.937Z,10.15
2023-01-11T23:40:14.759Z,7.53
2023-01-11T23:44:18.682Z,6.32
2023-01-11T23:48:21.412Z,5.30
2023-01-11T23:52:30.241Z,5.70
2023-01-11T23:56:34.274Z,5.30
